Esquina - Secu Tirs — 2DOU6 — position and weather

sailwx.info

Track history (hours):
 
Tides and Currents Weather Stations Pressure Air Temp Water Temp Dewpoint Dewpoint Depression Visibility Wind Speed Wind Dir Waves Ship Positions

Esquina - Secu Tirs

Last reported at 2018-Feb-22 15:04 UTC. Time now 2018-Feb-24 04:13 UTC.
Position N 47°45' W 003°21'.

Type: Other ship. MMSI: 235080801.

Date/timePositionNaut miles runAvg speedWind from/ knotsBaromVisibWave heightAir tempDewpointWater temp
2018-Feb-22 15:04N 47°45' W 003°21'0 2.4
2018-Feb-22 15:00N 47°45' W 003°21'510.3
2018-Feb-22 14:30N 47°41' W 003°26'5 9.9
2018-Feb-22 13:57N 47°45' W 003°21'1 3.0
2018-Feb-22 13:30N 47°44' W 003°22'4 7.7
2018-Feb-22 13:00N 47°40' W 003°21'4 8.9
2018-Feb-22 12:30N 47°37' W 003°16'3 6.9
2018-Feb-22 12:00N 47°34' W 003°12'2 3.6
2018-Feb-22 11:30N 47°36' W 003°10'4 7.9
2018-Feb-22 11:00N 47°32' W 003°14'0 0.7
2018-Feb-22 10:29N 47°32' W 003°13'0 0.9
2018-Feb-22 09:56N 47°32' W 003°12'0 0.5
2018-Feb-22 09:30N 47°32' W 003°12'1 1.8
2018-Feb-22 08:58N 47°32' W 003°11'0 0.7
2018-Feb-22 08:28N 47°32' W 003°11'2 4.4
2018-Feb-22 08:00N 47°34' W 003°12'1 1.5
2018-Feb-22 07:30N 47°35' W 003°11'0 0.4
2018-Feb-22 07:00N 47°35' W 003°12'0 0.9
2018-Feb-22 06:30N 47°34' W 003°12'3 6.2
2018-Feb-22 06:00N 47°36' W 003°16'4 8.5
2018-Feb-22 05:31N 47°39' W 003°20'5 0.3
2018-Feb-21 10:39N 47°45' W 003°21'0 0.0
2018-Feb-21 10:30N 47°45' W 003°21'0 0.4
2018-Feb-21 10:00N 47°45' W 003°21'0 0.0
2018-Feb-21 09:30N 47°45' W 003°21'3 6.3
2018-Feb-21 09:00N 47°42' W 003°22'4 7.7
2018-Feb-21 08:31N 47°38' W 003°19'4 8.5
2018-Feb-21 08:00N 47°35' W 003°14'2 3.6
2018-Feb-21 07:29N 47°34' W 003°12'0 0.2
2018-Feb-21 07:00N 47°34' W 003°12'1 1.1
2018-Feb-21 06:30N 47°35' W 003°13'4 8.8
2018-Feb-21 06:00N 47°38' W 003°18'5 9.0
2018-Feb-21 05:30N 47°41' W 003°22'4 7.1
2018-Feb-21 05:00N 47°44' W 003°21'0 0.8
2018-Feb-21 04:28N 47°45' W 003°21'0 0.0
2018-Feb-20 13:58N 47°45' W 003°21'0 0.0
2018-Feb-20 13:28N 47°45' W 003°21'0 0.0
2018-Feb-19 14:03N 47°45' W 003°21'  
2018-Feb-16 16:19N 47°45' W 003°21'0 0.4
2018-Feb-16 16:00N 47°45' W 003°21'0 0.2
2018-Feb-16 15:29N 47°45' W 003°21'0 0.0
2018-Feb-16 15:00N 47°45' W 003°21'  
2018-Feb-13 05:14N 47°45' W 003°21'0 0.0
2018-Feb-13 04:59N 47°45' W 003°21'  
Track history (hours):
 
Tides and Currents Weather Stations Pressure Air Temp Water Temp Dewpoint Dewpoint Depression Visibility Wind Speed Wind Dir Waves Ship Positions

Esquina - Secu Tirs

Last reported at 2018-Feb-22 15:04 UTC. Time now 2018-Feb-24 04:13 UTC.
Position N 47°45' W 003°21'.

Type: Other ship. MMSI: 235080801.

Date/timePositionNaut miles runAvg speedWind from/ knotsBaromVisibWave heightAir tempDewpointWater temp
2018-Feb-22 15:04N 47°45' W 003°21'0 2.4
2018-Feb-22 15:00N 47°45' W 003°21'510.3
2018-Feb-22 14:30N 47°41' W 003°26'5 9.9
2018-Feb-22 13:57N 47°45' W 003°21'1 3.0
2018-Feb-22 13:30N 47°44' W 003°22'4 7.7
2018-Feb-22 13:00N 47°40' W 003°21'4 8.9
2018-Feb-22 12:30N 47°37' W 003°16'3 6.9
2018-Feb-22 12:00N 47°34' W 003°12'2 3.6
2018-Feb-22 11:30N 47°36' W 003°10'4 7.9
2018-Feb-22 11:00N 47°32' W 003°14'0 0.7
2018-Feb-22 10:29N 47°32' W 003°13'0 0.9
2018-Feb-22 09:56N 47°32' W 003°12'0 0.5
2018-Feb-22 09:30N 47°32' W 003°12'1 1.8
2018-Feb-22 08:58N 47°32' W 003°11'0 0.7
2018-Feb-22 08:28N 47°32' W 003°11'2 4.4
2018-Feb-22 08:00N 47°34' W 003°12'1 1.5
2018-Feb-22 07:30N 47°35' W 003°11'0 0.4
2018-Feb-22 07:00N 47°35' W 003°12'0 0.9
2018-Feb-22 06:30N 47°34' W 003°12'3 6.2
2018-Feb-22 06:00N 47°36' W 003°16'4 8.5
2018-Feb-22 05:31N 47°39' W 003°20'5 0.3
2018-Feb-21 10:39N 47°45' W 003°21'0 0.0
2018-Feb-21 10:30N 47°45' W 003°21'0 0.4
2018-Feb-21 10:00N 47°45' W 003°21'0 0.0
2018-Feb-21 09:30N 47°45' W 003°21'3 6.3
2018-Feb-21 09:00N 47°42' W 003°22'4 7.7
2018-Feb-21 08:31N 47°38' W 003°19'4 8.5
2018-Feb-21 08:00N 47°35' W 003°14'2 3.6
2018-Feb-21 07:29N 47°34' W 003°12'0 0.2
2018-Feb-21 07:00N 47°34' W 003°12'1 1.1
2018-Feb-21 06:30N 47°35' W 003°13'4 8.8
2018-Feb-21 06:00N 47°38' W 003°18'5 9.0
2018-Feb-21 05:30N 47°41' W 003°22'4 7.1
2018-Feb-21 05:00N 47°44' W 003°21'0 0.8
2018-Feb-21 04:28N 47°45' W 003°21'0 0.0
2018-Feb-20 13:58N 47°45' W 003°21'0 0.0
2018-Feb-20 13:28N 47°45' W 003°21'0 0.0
2018-Feb-19 14:03N 47°45' W 003°21'  
2018-Feb-16 16:19N 47°45' W 003°21'0 0.4
2018-Feb-16 16:00N 47°45' W 003°21'0 0.2
2018-Feb-16 15:29N 47°45' W 003°21'0 0.0
2018-Feb-16 15:00N 47°45' W 003°21'  
2018-Feb-13 05:14N 47°45' W 003°21'0 0.0
2018-Feb-13 04:59N 47°45' W 003°21'  

Dump ship's entire track history